RKPC/CJU METAR and TAF weather

Enter ICAO airport designator
Station Type Date Time Source
RKPC METAR 2021/07/26 14:00 UTC NOAA

RKPC 261400Z 14009KT 090V170 9999 FEW030 BKN200 28/21 Q1002 WS R07 R25 NOSIG


Station Type Date Time Source
RKPC Decoded METAR 2021/07/26 14:00 UTC NOAA

Cheju International Airport, Korea, South (RKPC) 33-30N 126-30E 28M
Jul 26, 2021 - 10:00 AM EDT / 2021.07.26 1400 UTC
Wind: from the SE (140 degrees) at 10 MPH (9 KT) (direction variable):0
Visibility: greater than 7 mile(s):0
Sky conditions: mostly cloudy
Temperature: 82 F (28 C)
Dew Point: 69 F (21 C)
Relative Humidity: 65%
Pressure (altimeter): 29.59 in. Hg (1002 hPa)
ob: RKPC 261400Z 14009KT 090V170 9999 FEW030 BKN200 28/21 Q1002 WS R07 R25 NOSIG
cycle: 14

Station Type Date Time Source
RKPC TAF 2021/07/26 12:07 UTC NOAA

TAF RKPC 261100Z 2612/2718 10020G35KT 9999 FEW030 BKN200 TN26/2619Z TX30/2704Z
BECMG 2613/2614 10015G25KT
BECMG 2616/2617 10010KT
BECMG 2701/2702 08015G25KT
BECMG 2710/2711 09010KT

Example: see airport list